Main page
METAR-TAF:

METAR-TAF

Airports :

General Ulpiano Paez Airport

Salinas, Ecuador

latitude: 02-12-18S, longitude: 080-59-20W, elevation: 5 m

Current weather observation

The report was made 6 hours and 19 minutes ago, at 02:00 UTC
Wind 12 kt from the South/Southwest
Temperature 22°C
Humidity 83%
Pressure 1012 hPa
Visibility 10 km or more
Few clouds at a height of 700 ft
Scattered clouds at a height of 1000 ft
Broken clouds at a height of 7000 ft

METAR: SESA 180200Z 21012KT 9999 FEW007 SCT010 BKN070 22/19 Q1012 RMK A2990

Time: 03:19 (08:19 UTC)


TAF: missing

Weather observations and forecasts of more than 4000 airports (METAR and TAF reports).

The available stations are represented by yellow and red dots on the map.

Hover mouse over dot to see the name of the station.

Then click to see weather observations and forecasts.

To change the map : click on the green buttons with a black cross to zoom in, on the green button with a dash to zoom out, or on the green arrows for adjacent maps.


METAR-TAF: